createdAt,value
2019-04-29T00:00:07.369Z,10.67
2019-04-29T00:02:38.229Z,13.37
2019-04-29T00:05:09.279Z,12.63
2019-04-29T00:07:39.997Z,9.47
2019-04-29T00:10:15.733Z,8.60
2019-04-29T00:12:47.486Z,14.90
2019-04-29T00:15:19.759Z,14.27
2019-04-29T00:17:54.754Z,12.53
2019-04-29T00:20:35.674Z,10.23
2019-04-29T00:23:06.451Z,8.27
2019-04-29T00:25:37.343Z,11.10
2019-04-29T00:28:07.965Z,11.70
2019-04-29T00:30:38.606Z,9.67
2019-04-29T00:33:09.513Z,10.03
2019-04-29T00:35:40.655Z,9.70
2019-04-29T00:38:18.872Z,10.67
2019-04-29T00:40:55.457Z,10.67
2019-04-29T00:43:30.597Z,8.90
2019-04-29T00:46:04.901Z,11.20
2019-04-29T00:48:35.494Z,9.80
2019-04-29T00:51:06.259Z,8.40
2019-04-29T00:53:37.073Z,10.93
2019-04-29T00:56:07.776Z,9.70
2019-04-29T00:58:38.961Z,10.50
2019-04-29T01:01:13.088Z,9.27
2019-04-29T01:03:43.806Z,10.70
2019-04-29T01:06:14.423Z,12.33
2019-04-29T01:08:45.428Z,10.67
2019-04-29T01:11:16.148Z,9.47
2019-04-29T01:13:46.764Z,11.63
2019-04-29T01:16:17.412Z,10.33
2019-04-29T01:18:47.998Z,9.30
2019-04-29T01:21:18.877Z,10.33
2019-04-29T01:23:49.714Z,7.03
2019-04-29T01:26:38.077Z,10.40
2019-04-29T01:29:10.266Z,10.60
2019-04-29T01:31:41.047Z,12.87
2019-04-29T01:34:16.268Z,10.93
2019-04-29T01:36:48.044Z,9.83
2019-04-29T01:39:19.502Z,13.57
2019-04-29T01:41:54.419Z,14.27
2019-04-29T01:44:26.662Z,13.17
2019-04-29T01:46:57.334Z,9.80
2019-04-29T01:49:27.876Z,8.73
2019-04-29T01:51:58.523Z,12.47
2019-04-29T01:54:29.224Z,7.33
2019-04-29T01:56:59.980Z,8.97
2019-04-29T01:59:30.841Z,7.80
2019-04-29T02:02:01.689Z,8.83
2019-04-29T02:04:32.356Z,13.07
2019-04-29T02:07:02.995Z,9.87
2019-04-29T02:09:41.101Z,7.57
2019-04-29T02:12:12.827Z,8.83
2019-04-29T02:14:43.609Z,11.10
2019-04-29T02:17:14.332Z,6.83
2019-04-29T02:19:44.941Z,8.50
2019-04-29T02:22:17.254Z,11.23
2019-04-29T02:24:55.386Z,11.60
2019-04-29T02:27:26.146Z,7.90
2019-04-29T02:29:56.905Z,10.23
2019-04-29T02:32:27.698Z,11.87
2019-04-29T02:34:58.485Z,13.83
2019-04-29T02:37:30.796Z,9.23
2019-04-29T02:40:06.128Z,12.70
2019-04-29T02:42:38.487Z,16.30
2019-04-29T02:45:16.852Z,12.37
2019-04-29T02:47:47.552Z,15.27
2019-04-29T02:50:18.991Z,8.90
2019-04-29T02:52:49.766Z,19.07
2019-04-29T02:55:22.107Z,21.37
2019-04-29T02:57:57.186Z,16.07
2019-04-29T03:00:32.128Z,21.40
2019-04-29T03:03:04.346Z,15.67
2019-04-29T03:05:39.879Z,22.03
2019-04-29T03:08:09.092Z,20.13
2019-04-29T03:10:39.764Z,20.07
2019-04-29T03:13:10.576Z,16.47
2019-04-29T03:15:42.970Z,17.93
2019-04-29T03:18:14.795Z,24.17
2019-04-29T03:20:47.062Z,20.13
2019-04-29T03:23:22.312Z,18.07
2019-04-29T03:25:54.076Z,14.83
2019-04-29T03:28:24.910Z,23.10
2019-04-29T03:30:55.845Z,19.03
2019-04-29T03:33:26.644Z,13.50
2019-04-29T03:35:57.463Z,16.97
2019-04-29T03:38:28.320Z,14.90
2019-04-29T03:40:59.220Z,15.93
2019-04-29T03:43:29.950Z,13.57
2019-04-29T03:46:00.854Z,19.50
2019-04-29T03:48:31.740Z,20.33
2019-04-29T03:51:05.216Z,12.70
2019-04-29T03:53:36.115Z,18.87
2019-04-29T03:56:06.904Z,11.30
2019-04-29T03:58:37.779Z,13.50
2019-04-29T04:01:16.069Z,11.00
2019-04-29T04:03:54.825Z,11.40
2019-04-29T04:06:27.116Z,16.20
2019-04-29T04:09:06.174Z,10.40
2019-04-29T04:11:33.261Z,11.03
2019-04-29T04:14:05.254Z,8.73
2019-04-29T04:16:55.733Z,11.90
2019-04-29T04:19:29.123Z,13.77
2019-04-29T04:22:00.936Z,9.27
2019-04-29T04:24:31.535Z,8.67
2019-04-29T04:27:05.046Z,11.57
2019-04-29T04:29:35.981Z,16.37
2019-04-29T04:32:06.753Z,9.60
2019-04-29T04:34:37.607Z,13.43
2019-04-29T04:37:08.455Z,8.27
2019-04-29T04:39:40.823Z,11.60
2019-04-29T04:42:12.502Z,12.93
2019-04-29T04:44:50.519Z,8.03
2019-04-29T04:47:21.612Z,11.47
2019-04-29T04:49:52.440Z,16.73
2019-04-29T04:52:23.171Z,15.70
2019-04-29T04:54:55.657Z,11.47
2019-04-29T04:57:26.452Z,10.77
2019-04-29T04:59:57.366Z,16.57
2019-04-29T05:02:28.525Z,16.97
2019-04-29T05:05:00.744Z,13.50
2019-04-29T05:07:31.751Z,13.60
2019-04-29T05:10:02.493Z,13.23
2019-04-29T05:12:33.096Z,18.27
2019-04-29T05:15:04.811Z,21.57
2019-04-29T05:17:38.375Z,17.43
2019-04-29T05:20:11.052Z,20.87
2019-04-29T05:22:43.276Z,27.83
2019-04-29T05:25:14.166Z,33.77
2019-04-29T05:27:45.461Z,30.07
2019-04-29T05:30:16.175Z,29.17
2019-04-29T05:32:47.632Z,26.03
2019-04-29T05:35:45.569Z,27.53
2019-04-29T05:38:22.724Z,25.27
2019-04-29T05:40:56.735Z,26.00
2019-04-29T05:43:33.853Z,37.83
2019-04-29T05:46:12.302Z,28.53
2019-04-29T05:48:43.328Z,31.43
2019-04-29T05:51:18.151Z,35.60
2019-04-29T05:53:54.871Z,32.00
2019-04-29T05:56:22.769Z,38.70
2019-04-29T05:58:53.574Z,40.97
2019-04-29T06:01:26.006Z,37.03
2019-04-29T06:03:56.920Z,36.83
2019-04-29T06:06:27.824Z,37.67
2019-04-29T06:08:58.568Z,49.13
2019-04-29T06:11:29.159Z,38.47
2019-04-29T06:13:59.991Z,38.27
2019-04-29T06:16:30.679Z,30.07
2019-04-29T06:19:05.542Z,33.90
2019-04-29T06:21:33.794Z,33.67
2019-04-29T06:24:06.922Z,32.13
2019-04-29T06:26:37.643Z,32.90
2019-04-29T06:29:08.454Z,37.40
2019-04-29T06:31:39.208Z,41.73
2019-04-29T06:34:09.912Z,39.33
2019-04-29T06:36:40.526Z,45.00
2019-04-29T06:39:11.040Z,29.47
2019-04-29T06:41:45.385Z,34.57
2019-04-29T06:44:16.715Z,29.07
2019-04-29T06:46:50.245Z,33.23
2019-04-29T06:49:18.958Z,26.53
2019-04-29T06:51:49.698Z,27.77
2019-04-29T06:54:20.624Z,26.43
2019-04-29T06:56:51.375Z,26.67
2019-04-29T06:59:22.063Z,21.03
2019-04-29T07:01:52.829Z,24.90
2019-04-29T07:04:23.629Z,26.27
2019-04-29T07:06:57.525Z,24.50
2019-04-29T07:09:27.147Z,23.50
2019-04-29T07:12:01.621Z,26.93
2019-04-29T07:14:33.394Z,26.30
2019-04-29T07:17:05.703Z,21.80
2019-04-29T07:19:40.162Z,26.90
2019-04-29T07:22:13.076Z,29.23
2019-04-29T07:24:43.894Z,21.03
2019-04-29T07:27:14.565Z,30.47
2019-04-29T07:29:45.411Z,28.37
2019-04-29T07:32:16.276Z,24.23
2019-04-29T07:34:46.874Z,26.50
2019-04-29T07:37:17.514Z,24.63
2019-04-29T07:39:48.282Z,22.03
2019-04-29T07:42:18.921Z,23.87
2019-04-29T07:45:07.244Z,28.07
2019-04-29T07:47:38.783Z,16.00
2019-04-29T07:50:09.717Z,23.90
2019-04-29T07:52:45.642Z,26.43
2019-04-29T07:55:15.322Z,26.10
2019-04-29T07:57:47.772Z,20.43
2019-04-29T08:00:21.489Z,16.63
2019-04-29T08:02:52.255Z,20.40
2019-04-29T08:05:22.956Z,16.57
2019-04-29T08:07:54.278Z,20.90
2019-04-29T08:10:28.577Z,17.03
2019-04-29T08:12:59.126Z,16.80
2019-04-29T08:15:31.923Z,21.50
2019-04-29T08:18:06.628Z,23.30
2019-04-29T08:20:35.526Z,21.17
2019-04-29T08:23:07.017Z,18.43
2019-04-29T08:25:37.637Z,22.60
2019-04-29T08:28:08.331Z,21.77
2019-04-29T08:30:41.903Z,22.93
2019-04-29T08:33:13.129Z,22.67
2019-04-29T08:35:46.663Z,26.07
2019-04-29T08:38:16.584Z,22.57
2019-04-29T08:40:49.976Z,19.20
2019-04-29T08:43:33.507Z,22.57
2019-04-29T08:46:11.882Z,28.70
2019-04-29T08:48:45.796Z,20.77
2019-04-29T08:51:15.271Z,23.83
2019-04-29T08:53:45.874Z,19.63
2019-04-29T08:56:16.454Z,27.93
2019-04-29T08:58:49.200Z,20.90
2019-04-29T09:01:19.502Z,15.27
2019-04-29T09:03:53.772Z,15.17
2019-04-29T09:06:22.490Z,17.17
2019-04-29T09:08:55.523Z,78.13
2019-04-29T09:11:25.697Z,32.83
2019-04-29T09:13:56.557Z,21.33
2019-04-29T09:16:27.617Z,20.30
2019-04-29T09:18:58.250Z,12.40
2019-04-29T09:21:30.437Z,12.43
2019-04-29T09:24:01.276Z,14.10
2019-04-29T09:26:36.573Z,21.73
2019-04-29T09:29:25.282Z,16.47
2019-04-29T09:31:56.546Z,16.40
2019-04-29T09:34:27.207Z,9.70
2019-04-29T09:37:00.202Z,18.33
2019-04-29T09:39:42.492Z,33.23
2019-04-29T09:42:08.176Z,12.70
2019-04-29T09:44:45.509Z,22.10
2019-04-29T09:47:16.299Z,124.77
2019-04-29T09:49:46.894Z,17.07
2019-04-29T09:52:17.735Z,21.07
2019-04-29T09:54:48.538Z,20.30
2019-04-29T09:57:19.170Z,16.40
2019-04-29T10:00:08.913Z,19.30
2019-04-29T10:02:44.476Z,15.33
2019-04-29T10:05:29.239Z,18.60
2019-04-29T10:08:00.036Z,16.17
2019-04-29T10:10:30.762Z,12.53
2019-04-29T10:13:02.124Z,14.80
2019-04-29T10:15:34.484Z,14.67
2019-04-29T10:18:10.755Z,15.50
2019-04-29T10:20:46.344Z,11.10
2019-04-29T10:23:18.520Z,12.77
2019-04-29T10:25:49.260Z,13.50
2019-04-29T10:28:19.888Z,10.27
2019-04-29T10:30:50.906Z,9.63
2019-04-29T10:33:23.138Z,12.10
2019-04-29T10:35:54.085Z,18.57
2019-04-29T10:38:24.654Z,13.57
2019-04-29T10:41:00.690Z,15.07
2019-04-29T10:43:53.448Z,14.57
2019-04-29T10:46:39.840Z,10.90
2019-04-29T10:49:14.967Z,14.13
2019-04-29T10:51:46.357Z,14.27
2019-04-29T10:54:18.449Z,19.93
2019-04-29T10:56:51.100Z,19.20
2019-04-29T10:59:35.152Z,25.17
2019-04-29T11:02:13.474Z,23.63
2019-04-29T11:04:40.247Z,26.97
2019-04-29T11:07:19.111Z,27.70
2019-04-29T11:09:50.709Z,29.73
2019-04-29T11:12:24.418Z,40.33
2019-04-29T11:14:55.229Z,30.83
2019-04-29T11:17:27.565Z,35.33
2019-04-29T11:19:58.330Z,30.90
2019-04-29T11:22:33.900Z,26.80
2019-04-29T11:25:11.238Z,29.07
2019-04-29T11:27:49.577Z,28.47
2019-04-29T11:30:26.030Z,27.50
2019-04-29T11:33:00.095Z,28.57
2019-04-29T11:35:45.332Z,27.17
2019-04-29T11:38:17.814Z,32.00
2019-04-29T11:40:50.231Z,30.13
2019-04-29T11:43:21.029Z,33.03
2019-04-29T11:45:52.151Z,31.50
2019-04-29T11:48:22.852Z,33.57
2019-04-29T11:51:01.365Z,31.67
2019-04-29T11:53:32.263Z,35.20
2019-04-29T11:56:02.887Z,33.67
2019-04-29T11:58:38.137Z,32.63
2019-04-29T12:01:38.420Z,29.93
2019-04-29T12:04:01.476Z,27.87
2019-04-29T12:06:32.294Z,30.63
2019-04-29T12:09:06.561Z,30.27
2019-04-29T12:11:37.333Z,28.50
2019-04-29T12:14:18.318Z,30.20
2019-04-29T12:16:56.813Z,30.33
2019-04-29T12:19:32.278Z,29.77
2019-04-29T12:22:04.767Z,32.57
2019-04-29T12:24:35.785Z,28.57
2019-04-29T12:27:06.995Z,29.40
2019-04-29T12:29:37.814Z,24.83
2019-04-29T12:32:10.321Z,21.67
2019-04-29T12:34:42.882Z,26.77
2019-04-29T12:37:18.004Z,25.90
2019-04-29T12:39:50.476Z,26.97
2019-04-29T12:42:40.206Z,23.43
2019-04-29T12:45:19.916Z,23.17
2019-04-29T12:47:50.825Z,22.33
2019-04-29T12:50:22.991Z,26.27
2019-04-29T12:52:54.229Z,22.47
2019-04-29T12:55:43.640Z,23.33
2019-04-29T12:57:59.155Z,24.97
2019-04-29T13:00:46.875Z,22.00
2019-04-29T13:03:08.688Z,20.00
2019-04-29T13:05:57.929Z,21.00
2019-04-29T13:08:21.254Z,18.23
2019-04-29T13:10:53.502Z,22.10
2019-04-29T13:13:24.279Z,17.93
2019-04-29T13:16:05.657Z,16.30
2019-04-29T13:18:53.793Z,13.37
2019-04-29T13:21:22.745Z,17.17
2019-04-29T13:24:05.331Z,15.77
2019-04-29T13:26:28.303Z,11.40
2019-04-29T13:29:01.018Z,24.47
2019-04-29T13:31:38.546Z,16.90
2019-04-29T13:34:22.826Z,13.13
2019-04-29T13:36:40.185Z,18.40
2019-04-29T13:39:11.263Z,14.47
2019-04-29T13:41:56.283Z,16.90
2019-04-29T13:44:19.296Z,15.27
2019-04-29T13:46:54.090Z,14.67
2019-04-29T13:49:31.667Z,12.90
2019-04-29T13:52:03.911Z,12.97
2019-04-29T13:54:37.193Z,20.83
2019-04-29T13:57:15.612Z,15.60
2019-04-29T13:59:53.147Z,14.70
2019-04-29T14:02:36.776Z,16.47
2019-04-29T14:05:10.914Z,14.00
2019-04-29T14:07:42.110Z,15.13
2019-04-29T14:10:16.800Z,16.40
2019-04-29T14:13:00.714Z,15.20
2019-04-29T14:15:21.719Z,14.10
2019-04-29T14:17:52.727Z,14.00
2019-04-29T14:20:24.682Z,13.67
2019-04-29T14:22:55.370Z,11.50
2019-04-29T14:25:26.062Z,11.77
2019-04-29T14:27:56.825Z,11.87
2019-04-29T14:30:38.392Z,12.13
2019-04-29T14:33:03.044Z,10.83
2019-04-29T14:35:36.428Z,12.53
2019-04-29T14:38:07.135Z,15.70
2019-04-29T14:40:39.123Z,15.17
2019-04-29T14:43:31.712Z,16.70
2019-04-29T14:46:15.959Z,13.73
2019-04-29T14:48:48.024Z,14.93
2019-04-29T14:51:18.833Z,17.87
2019-04-29T14:53:56.539Z,18.57
2019-04-29T14:56:25.195Z,17.53
2019-04-29T14:59:06.584Z,18.63
2019-04-29T15:01:36.622Z,15.77
2019-04-29T15:04:18.403Z,17.10
2019-04-29T15:06:44.711Z,17.40
2019-04-29T15:09:19.830Z,20.80
2019-04-29T15:11:59.145Z,20.53
2019-04-29T15:14:33.391Z,17.20
2019-04-29T15:17:17.490Z,18.67
2019-04-29T15:19:55.832Z,17.67
2019-04-29T15:22:30.221Z,17.63
2019-04-29T15:25:01.683Z,18.53
2019-04-29T15:27:32.895Z,20.70
2019-04-29T15:30:06.317Z,21.67
2019-04-29T15:32:37.669Z,19.00
2019-04-29T15:35:08.510Z,18.40
2019-04-29T15:37:39.248Z,18.77
2019-04-29T15:40:11.503Z,19.13
2019-04-29T15:42:46.270Z,17.10
2019-04-29T15:45:16.314Z,17.97
2019-04-29T15:47:47.254Z,18.33
2019-04-29T15:50:19.437Z,19.87
2019-04-29T15:52:50.423Z,21.93
2019-04-29T15:55:21.085Z,18.73
2019-04-29T15:57:52.697Z,20.00
2019-04-29T16:00:24.996Z,20.63
2019-04-29T16:02:58.648Z,18.40
2019-04-29T16:06:11.129Z,24.87
2019-04-29T16:08:29.265Z,24.93
2019-04-29T16:10:59.320Z,21.13
2019-04-29T16:13:32.930Z,18.97
2019-04-29T16:16:03.714Z,24.10
2019-04-29T16:18:34.702Z,22.73
2019-04-29T16:21:05.453Z,25.33
2019-04-29T16:23:38.567Z,20.77
2019-04-29T16:26:08.744Z,23.97
2019-04-29T16:28:40.221Z,24.50
2019-04-29T16:31:12.175Z,25.53
2019-04-29T16:33:47.305Z,26.00
2019-04-29T16:36:16.226Z,29.60
2019-04-29T16:38:51.328Z,24.87
2019-04-29T16:41:36.376Z,28.20
2019-04-29T16:44:34.290Z,27.00
2019-04-29T16:46:47.354Z,26.90
2019-04-29T16:49:18.815Z,24.57
2019-04-29T16:51:53.442Z,23.63
2019-04-29T16:54:28.121Z,23.87
2019-04-29T16:56:56.065Z,27.33
2019-04-29T16:59:26.851Z,25.50
2019-04-29T17:01:57.822Z,26.37
2019-04-29T17:04:29.975Z,27.47
2019-04-29T17:07:12.139Z,26.73
2019-04-29T17:09:48.458Z,26.10
2019-04-29T17:12:19.324Z,24.93
2019-04-29T17:15:03.745Z,26.20
2019-04-29T17:17:29.328Z,24.20
2019-04-29T17:19:56.871Z,26.67
2019-04-29T17:22:27.929Z,25.80
2019-04-29T17:24:58.679Z,30.83
2019-04-29T17:27:46.130Z,26.77
2019-04-29T17:30:38.265Z,28.27
2019-04-29T17:33:27.754Z,25.77
2019-04-29T17:35:57.519Z,28.77
2019-04-29T17:38:28.264Z,25.77
2019-04-29T17:40:59.000Z,26.03
2019-04-29T17:43:44.749Z,26.27
2019-04-29T17:46:17.472Z,24.30
2019-04-29T17:48:54.073Z,25.73
2019-04-29T17:51:26.958Z,23.23
2019-04-29T17:54:27.943Z,24.67
2019-04-29T17:57:25.662Z,25.73
2019-04-29T17:59:45.931Z,27.63
2019-04-29T18:02:22.975Z,27.50
2019-04-29T18:05:02.086Z,27.50
2019-04-29T18:07:51.923Z,27.77
2019-04-29T18:10:24.091Z,26.80
2019-04-29T18:12:55.254Z,22.33
2019-04-29T18:15:40.182Z,22.87
2019-04-29T18:18:07.134Z,26.37
2019-04-29T18:20:39.509Z,26.30
2019-04-29T18:23:30.299Z,25.23
2019-04-29T18:26:05.472Z,24.00
2019-04-29T18:28:37.383Z,23.77
2019-04-29T18:31:09.869Z,27.17
2019-04-29T18:33:41.226Z,24.83
2019-04-29T18:36:21.787Z,27.37
2019-04-29T18:38:48.708Z,28.77
2019-04-29T18:41:24.479Z,27.50
2019-04-29T18:43:49.357Z,31.47
2019-04-29T18:46:20.160Z,26.07
2019-04-29T18:48:51.108Z,26.00
2019-04-29T18:51:25.689Z,25.47
2019-04-29T18:53:55.543Z,26.33
2019-04-29T18:56:26.388Z,28.33
2019-04-29T18:58:57.146Z,26.40
2019-04-29T19:01:28.987Z,31.60
2019-04-29T19:04:10.118Z,25.83
2019-04-29T19:06:40.711Z,25.27
2019-04-29T19:09:20.093Z,23.40
2019-04-29T19:11:46.360Z,27.20
2019-04-29T19:14:20.579Z,28.03
2019-04-29T19:16:52.722Z,24.93
2019-04-29T19:19:22.260Z,25.03
2019-04-29T19:21:52.979Z,27.13
2019-04-29T19:24:23.840Z,24.70
2019-04-29T19:27:00.549Z,24.50
2019-04-29T19:29:27.227Z,23.67
2019-04-29T19:31:57.955Z,24.63
2019-04-29T19:34:39.961Z,22.53
2019-04-29T19:37:01.192Z,26.43
2019-04-29T19:39:31.929Z,23.27
2019-04-29T19:42:02.667Z,20.23
2019-04-29T19:44:36.536Z,21.23
2019-04-29T19:47:06.168Z,20.93
2019-04-29T19:49:40.283Z,23.77
2019-04-29T19:52:09.507Z,24.73
2019-04-29T19:54:40.329Z,21.73
2019-04-29T19:57:11.091Z,24.77
2019-04-29T19:59:50.409Z,26.33
2019-04-29T20:02:16.566Z,26.07
2019-04-29T20:04:53.773Z,25.00
2019-04-29T20:07:26.117Z,28.67
2019-04-29T20:10:03.904Z,24.20
2019-04-29T20:12:28.861Z,25.10
2019-04-29T20:15:02.353Z,25.80
2019-04-29T20:17:50.669Z,25.00
2019-04-29T20:20:25.045Z,26.37
2019-04-29T20:22:56.015Z,25.80
2019-04-29T20:25:30.267Z,30.00
2019-04-29T20:28:05.749Z,29.17
2019-04-29T20:30:35.586Z,29.80
2019-04-29T20:33:09.596Z,28.53
2019-04-29T20:35:40.391Z,29.53
2019-04-29T20:38:11.682Z,29.07
2019-04-29T20:40:43.611Z,32.10
2019-04-29T20:43:15.993Z,26.67
2019-04-29T20:45:47.187Z,29.30
2019-04-29T20:48:19.617Z,28.87
2019-04-29T20:50:52.642Z,27.73
2019-04-29T20:53:30.916Z,34.27
2019-04-29T20:56:09.505Z,33.47
2019-04-29T20:58:33.270Z,31.60
2019-04-29T21:01:11.193Z,36.73
2019-04-29T21:03:46.206Z,37.50
2019-04-29T21:06:13.838Z,42.40
2019-04-29T21:08:50.871Z,41.43
2019-04-29T21:11:37.305Z,39.97
2019-04-29T21:14:12.509Z,41.57
2019-04-29T21:16:44.936Z,41.03
2019-04-29T21:19:15.713Z,42.47
2019-04-29T21:21:47.519Z,44.70
2019-04-29T21:24:18.912Z,51.00
2019-04-29T21:26:49.655Z,48.57
2019-04-29T21:29:20.443Z,44.47
2019-04-29T21:31:58.465Z,45.10
2019-04-29T21:34:25.625Z,43.20
2019-04-29T21:37:10.241Z,44.17
2019-04-29T21:39:42.716Z,46.23
2019-04-29T21:42:35.334Z,46.53
2019-04-29T21:45:08.800Z,46.53
2019-04-29T21:47:44.281Z,44.57
2019-04-29T21:50:10.235Z,55.23
2019-04-29T21:52:42.375Z,48.10
2019-04-29T21:55:13.769Z,52.60
2019-04-29T21:57:44.769Z,48.37
2019-04-29T22:00:24.091Z,51.97
2019-04-29T22:02:49.215Z,54.53
2019-04-29T22:05:22.847Z,54.80
2019-04-29T22:07:54.381Z,61.13
2019-04-29T22:10:29.021Z,59.93
2019-04-29T22:13:01.978Z,56.40
2019-04-29T22:15:37.283Z,67.70
2019-04-29T22:18:07.276Z,70.40
2019-04-29T22:20:42.292Z,72.00
2019-04-29T22:23:13.120Z,77.20
2019-04-29T22:25:45.279Z,83.23
2019-04-29T22:28:16.104Z,85.87
2019-04-29T22:30:49.916Z,85.33
2019-04-29T22:33:18.864Z,75.63
2019-04-29T22:35:49.722Z,76.37
2019-04-29T22:38:20.567Z,78.00
2019-04-29T22:40:52.474Z,69.33
2019-04-29T22:43:40.233Z,105.57
2019-04-29T22:46:10.667Z,83.97
2019-04-29T22:48:45.384Z,78.40
2019-04-29T22:51:17.600Z,95.53
2019-04-29T22:53:48.162Z,88.23
2019-04-29T22:56:19.205Z,75.53
2019-04-29T22:58:50.030Z,90.90
2019-04-29T23:01:20.737Z,92.27
2019-04-29T23:03:51.320Z,94.20
2019-04-29T23:06:22.318Z,82.90
2019-04-29T23:08:53.094Z,86.23
2019-04-29T23:11:23.858Z,81.70
2019-04-29T23:13:55.459Z,87.53
2019-04-29T23:16:26.419Z,75.23
2019-04-29T23:18:57.238Z,79.50
2019-04-29T23:21:37.408Z,81.37
2019-04-29T23:24:13.260Z,79.77
2019-04-29T23:26:42.305Z,92.03
2019-04-29T23:29:12.102Z,95.57
2019-04-29T23:31:43.293Z,79.67
2019-04-29T23:34:15.549Z,85.87
2019-04-29T23:36:48.903Z,78.57
2019-04-29T23:39:18.726Z,79.80
2019-04-29T23:41:49.518Z,83.60
2019-04-29T23:44:20.254Z,81.67
2019-04-29T23:46:51.090Z,76.80
2019-04-29T23:49:21.839Z,78.53
2019-04-29T23:51:52.426Z,83.03
2019-04-29T23:54:24.861Z,83.10
2019-04-29T23:57:03.325Z,83.77
2019-04-29T23:59:47.310Z,95.97
